Time;durP1;ratioP1;P1;durP2;ratioP2;P2;SDS_P1;SDS_P2;PMS_P1;PMS_P2;Temp;Humidity;BMP_temperature;BMP_pressure;BME280_temperature;BME280_humidity;BME280_pressure;Samples;Min_cycle;Max_cycle;Signal;HPM_P1;HPM_P2
2021/06/07 00:01:41;;;;;;;;;;;;;;;11.73;76.17;96480.94;3597577;39;19939;-54
2021/06/07 00:04:09;;;;;;;;;;;;;;;11.72;76.57;96476.69;3608903;39;20260;-54
2021/06/07 00:06:37;;;;;;;;;;;;;;;11.69;76.96;96475.34;3613325;39;19942;-54
2021/06/07 00:09:06;;;;;;;;;;;;;;;11.68;76.79;96477.19;3607583;39;19943;-53
2021/06/07 00:11:34;;;;;;;;;;;;;;;11.65;76.68;96477.66;3612954;39;19935;-53
2021/06/07 00:14:03;;;;;;;;;;;;;;;11.64;76.51;96470.00;3604427;39;20215;-53
2021/06/07 00:16:31;;;;;;;;;;;;;;;11.66;76.72;96467.91;3605184;39;19939;-54
2021/06/07 00:18:59;;;;;;;;;;;;;;;11.65;76.90;96477.66;3616220;39;19962;-54
2021/06/07 00:21:28;;;;;;;;;;;;;;;11.65;76.96;96477.66;3606814;39;19944;-54
2021/06/07 00:23:57;;;;;;;;;;;;;;;11.62;76.56;96478.19;3615506;39;19950;-53
2021/06/07 00:26:25;;;;;;;;;;;;;;;11.60;76.63;96480.28;3608055;39;19953;-53
2021/06/07 00:28:52;;;;;;;;;;;;;;;11.58;76.75;96479.72;3615858;39;19939;-53
2021/06/07 00:31:20;;;;;;;;;;;;;;;11.57;76.89;96483.41;3617211;39;20281;-53
2021/06/07 00:33:47;;;;;;;;;;;;;;;11.56;76.86;96481.03;3617386;39;19947;-53
2021/06/07 00:36:20;;;;;;;;;;;;;;;11.54;76.93;96475.97;3616838;39;19947;-53
2021/06/07 00:38:49;;;;;;;;;;;;;;;11.49;77.05;96475.94;3607345;39;19943;-52
2021/06/07 00:41:17;;;;;;;;;;;;;;;11.47;77.13;96478.00;3612404;39;19942;-54
2021/06/07 00:43:44;;;;;;;;;;;;;;;11.42;76.84;96480.59;3613452;39;19950;-53
2021/06/07 00:46:12;;;;;;;;;;;;;;;11.37;77.15;96470.75;3614616;39;19950;-53
2021/06/07 00:48:39;;;;;;;;;;;;;;;11.34;77.36;96471.25;3615566;39;19942;-52
2021/06/07 00:51:09;;;;;;;;;;;;;;;11.31;77.20;96472.53;3618496;39;20285;-54
2021/06/07 00:53:36;;;;;;;;;;;;;;;11.30;77.44;96475.44;3615431;39;19947;-53
2021/06/07 00:56:06;;;;;;;;;;;;;;;11.25;77.44;96478.81;3602701;39;20351;-54
2021/06/07 00:58:35;;;;;;;;;;;;;;;11.20;77.74;96476.09;3603727;39;20355;-53
2021/06/07 01:01:04;;;;;;;;;;;;;;;11.13;77.91;96476.28;3585030;39;20216;-53
2021/06/07 01:03:32;;;;;;;;;;;;;;;11.13;78.18;96475.50;3592930;39;19946;-53
2021/06/07 01:05:59;;;;;;;;;;;;;;;11.10;78.18;96476.78;3596187;39;19936;-53
2021/06/07 01:08:28;;;;;;;;;;;;;;;11.08;78.14;96479.66;3592688;39;19950;-54
2021/06/07 01:10:56;;;;;;;;;;;;;;;11.06;78.18;96476.47;3594756;39;19989;-54
2021/06/07 01:13:24;;;;;;;;;;;;;;;10.98;77.94;96476.91;3593636;39;20190;-53
2021/06/07 01:15:52;;;;;;;;;;;;;;;10.95;78.57;96469.47;3593872;39;19936;-53
2021/06/07 01:18:20;;;;;;;;;;;;;;;10.87;78.26;96473.31;3587353;39;20228;-53
2021/06/07 01:20:49;;;;;;;;;;;;;;;10.87;79.01;96478.59;3597614;39;19940;-53
2021/06/07 01:23:16;;;;;;;;;;;;;;;10.83;79.10;96479.31;3597076;39;19944;-54
2021/06/07 01:25:44;;;;;;;;;;;;;;;10.79;79.25;96479.03;3593850;39;19944;-53
2021/06/07 01:28:14;;;;;;;;;;;;;;;10.77;78.96;96479.25;3594651;39;19938;-54
2021/06/07 01:30:43;;;;;;;;;;;;;;;10.70;78.81;96469.94;3598352;39;20537;-53
2021/06/07 01:33:12;;;;;;;;;;;;;;;10.69;79.43;96476.25;3592209;39;19944;-55
2021/06/07 01:35:40;;;;;;;;;;;;;;;10.66;79.20;96477.50;3591908;39;19936;-56
2021/06/07 01:38:08;;;;;;;;;;;;;;;10.58;79.44;96462.09;3594877;39;19940;-54
2021/06/07 01:40:38;;;;;;;;;;;;;;;10.63;79.32;96477.19;3584481;39;20273;-53
2021/06/07 01:43:06;;;;;;;;;;;;;;;10.61;79.55;96474.81;3589495;39;19976;-52
2021/06/07 01:45:35;;;;;;;;;;;;;;;10.59;79.38;96471.59;3594090;39;19935;-53
2021/06/07 01:48:04;;;;;;;;;;;;;;;10.57;79.84;96473.69;3588720;39;19991;-53
2021/06/07 01:50:31;;;;;;;;;;;;;;;10.57;79.68;96476.31;3595529;39;19946;-53
2021/06/07 01:52:59;;;;;;;;;;;;;;;10.57;80.18;96479.78;3586242;39;19984;-53
2021/06/07 01:55:30;;;;;;;;;;;;;;;10.53;80.44;96477.84;3588791;39;19944;-53
2021/06/07 01:57:57;;;;;;;;;;;;;;;10.49;80.20;96477.53;3592917;39;20887;-53
2021/06/07 02:00:25;;;;;;;;;;;;;;;10.49;80.08;96487.28;3604087;39;19988;-54
2021/06/07 02:02:52;;;;;;;;;;;;;;;10.48;80.13;96485.69;3606025;39;20750;-53
2021/06/07 02:05:29;;;;;;;;;;;;;;;10.44;80.11;96483.53;3604487;39;20317;-53
2021/06/07 02:07:58;;;;;;;;;;;;;;;10.42;80.50;96482.19;3614291;39;19939;-53
2021/06/07 02:10:27;;;;;;;;;;;;;;;10.39;80.69;96480.00;3604833;39;19949;-53
2021/06/07 02:12:54;;;;;;;;;;;;;;;10.38;80.49;96481.84;3605231;39;19972;-53
2021/06/07 02:15:22;;;;;;;;;;;;;;;10.38;80.19;96481.84;3605623;39;19949;-53
2021/06/07 02:17:50;;;;;;;;;;;;;;;10.35;80.33;96482.31;3604289;39;19942;-53
2021/06/07 02:20:22;;;;;;;;;;;;;;;10.34;79.97;96483.34;3595143;39;19935;-54
2021/06/07 02:22:50;;;;;;;;;;;;;;;10.32;80.13;96485.41;3615249;39;19942;-53
2021/06/07 02:25:18;;;;;;;;;;;;;;;10.27;80.16;96475.59;3610902;39;19935;-53
2021/06/07 02:27:46;;;;;;;;;;;;;;;10.23;80.33;96481.59;3613842;39;19943;-52
2021/06/07 02:30:20;;;;;;;;;;;;;;;10.21;79.95;96478.38;3613960;39;19942;-53
2021/06/07 02:32:47;;;;;;;;;;;;;;;10.18;80.57;96481.47;3613347;39;19935;-53
2021/06/07 02:35:16;;;;;;;;;;;;;;;10.14;80.07;96479.34;3609753;39;20322;-53
2021/06/07 02:37:44;;;;;;;;;;;;;;;10.11;80.15;96479.00;3616667;39;19944;-53
2021/06/07 02:40:13;;;;;;;;;;;;;;;10.11;79.89;96474.53;3616128;39;19939;-53
2021/06/07 02:42:41;;;;;;;;;;;;;;;10.08;80.29;96475.00;3604564;39;20303;-53
2021/06/07 02:45:10;;;;;;;;;;;;;;;10.08;80.65;96471.59;3612596;39;19941;-53
2021/06/07 02:47:38;;;;;;;;;;;;;;;10.07;80.54;96480.53;3614284;39;20669;-53
2021/06/07 02:50:08;;;;;;;;;;;;;;;10.06;80.48;96490.25;3605187;39;20307;-54
2021/06/07 02:52:36;;;;;;;;;;;;;;;10.06;80.35;96484.22;3601403;39;19953;-53
2021/06/07 02:55:14;;;;;;;;;;;;;;;10.06;80.70;96479.72;3612198;39;20199;-54
2021/06/07 02:57:41;;;;;;;;;;;;;;;10.08;80.59;96480.28;3613755;39;20016;-54
2021/06/07 03:00:09;;;;;;;;;;;;;;;10.08;80.24;96484.78;3614325;39;19943;-54
2021/06/07 03:02:37;;;;;;;;;;;;;;;10.07;80.34;96481.31;3612987;39;20195;-54
2021/06/07 03:05:05;;;;;;;;;;;;;;;10.06;80.39;96484.22;3600770;39;19943;-54
2021/06/07 03:24:25;;;;;;;10.73;9.15;;;;;;;10.19;79.87;96499.72;3626827;39;20378;-56
2021/06/07 03:26:53;;;;;;;9.80;8.90;;;;;;;10.25;80.04;96497.97;3609016;39;20046;-55
2021/06/07 03:29:20;;;;;;;14.98;9.27;;;;;;;10.33;79.28;96500.19;3611752;39;20058;-54
2021/06/07 03:31:48;;;;;;;11.30;10.10;;;;;;;10.63;78.91;96498.31;3601078;39;20059;-53
2021/06/07 03:34:16;;;;;;;9.38;8.57;;;;;;;11.75;75.71;96497.34;3608659;39;20057;-54
2021/06/07 03:36:44;;;;;;;10.57;9.55;;;;;;;12.82;72.20;96503.78;3614279;39;20054;-56
2021/06/07 03:39:11;;;;;;;9.27;8.32;;;;;;;13.72;69.15;96502.13;3607754;39;20314;-53
2021/06/07 03:41:43;;;;;;;9.70;7.15;;;;;;;14.57;65.16;96498.25;3607260;39;20113;-54
2021/06/07 03:44:11;;;;;;;12.90;9.07;;;;;;;15.28;61.71;96496.53;3597176;39;20045;-55
2021/06/07 03:46:39;;;;;;;14.43;9.55;;;;;;;15.66;61.19;96488.91;3609855;39;20063;-54
2021/06/07 03:49:06;;;;;;;8.50;7.78;;;;;;;16.09;60.26;96503.56;3608305;39;20049;-54
2021/06/07 03:51:34;;;;;;;8.48;7.60;;;;;;;16.58;58.34;96501.91;3609628;39;20085;-54
2021/06/07 03:54:02;;;;;;;11.63;7.97;;;;;;;17.01;56.86;96495.91;3616828;39;20449;-55
2021/06/07 03:56:30;;;;;;;10.50;8.32;;;;;;;17.40;55.14;96502.16;3612137;39;20055;-55
2021/06/07 03:58:57;;;;;;;11.23;7.70;;;;;;;17.68;55.08;96503.13;3613903;39;20043;-55
2021/06/07 04:01:25;;;;;;;7.82;5.80;;;;;;;18.04;53.22;96502.66;3613428;39;20177;-55
2021/06/07 04:03:53;;;;;;;8.13;7.38;;;;;;;18.38;52.13;96504.31;3610806;39;20059;-55
2021/06/07 04:06:23;;;;;;;8.00;7.15;;;;;;;18.63;52.80;96509.53;3612682;39;20614;-55
2021/06/07 04:08:56;;;;;;;8.57;7.60;;;;;;;18.90;51.40;96506.09;3613008;39;20054;-55
2021/06/07 04:11:24;;;;;;;8.82;7.35;;;;;;;19.09;49.19;96506.06;3609191;39;20522;-54
2021/06/07 04:13:52;;;;;;;9.90;6.85;;;;;;;19.38;50.23;96501.53;3601848;39;21088;-54
2021/06/07 04:16:20;;;;;;;9.32;7.50;;;;;;;19.55;48.85;96496.34;3608702;39;20055;-54
2021/06/07 04:18:48;;;;;;;8.40;7.60;;;;;;;19.50;48.14;96496.47;3610545;39;20151;-55
2021/06/07 04:21:15;;;;;;;9.57;8.48;;;;;;;19.55;48.92;96516.97;3611057;39;20043;-54
2021/06/07 04:23:47;;;;;;;11.80;8.25;;;;;;;19.28;49.93;96514.00;3602791;39;20044;-55
2021/06/07 04:26:14;;;;;;;10.75;8.00;;;;;;;19.14;49.23;96513.22;3603981;39;20049;-54
2021/06/07 04:28:42;;;;;;;14.65;7.75;;;;;;;19.26;49.03;96510.81;3603811;39;20358;-55
2021/06/07 04:31:10;;;;;;;11.35;8.57;;;;;;;19.34;50.04;96512.00;3604570;39;20053;-55
2021/06/07 04:33:38;;;;;;;11.77;8.60;;;;;;;19.24;49.54;96513.03;3602935;39;20049;-55
2021/06/07 04:36:06;;;;;;;12.38;8.57;;;;;;;19.31;49.42;96516.09;3597006;39;20336;-55
2021/06/07 04:38:34;;;;;;;11.68;9.02;;;;;;;19.35;49.25;96509.06;3604392;39;20047;-55
2021/06/07 04:41:02;;;;;;;14.63;10.43;;;;;;;19.36;49.14;96512.50;3601556;39;20054;-56
2021/06/07 04:43:29;;;;;;;10.43;9.43;;;;;;;19.42;49.40;96522.03;3604104;39;20228;-55
2021/06/07 04:45:57;;;;;;;11.98;9.52;;;;;;;19.47;49.80;96515.78;3603490;39;20054;-56
2021/06/07 04:48:25;;;;;;;9.70;8.77;;;;;;;19.35;50.09;96509.06;3602442;39;20063;-55
2021/06/07 04:50:53;;;;;;;15.35;9.88;;;;;;;19.63;49.57;96506.34;3597183;39;20039;-55
2021/06/07 04:53:20;;;;;;;11.80;8.60;;;;;;;19.91;48.62;96505.53;3604068;39;20047;-55
2021/06/07 04:55:51;;;;;;;12.95;9.30;;;;;;;19.63;49.71;96505.56;3602541;39;20089;-55
2021/06/07 04:58:23;;;;;;;13.63;9.23;;;;;;;19.57;49.70;96507.56;3599073;39;20051;-56
2021/06/07 05:01:03;;;;;;;12.73;9.60;;;;;;;19.89;49.02;96505.81;3607589;39;20043;-56
2021/06/07 05:03:32;;;;;;;10.05;9.13;;;;;;;20.33;48.53;96500.81;3607197;39;20051;-56
2021/06/07 05:06:02;;;;;;;10.23;9.05;;;;;;;20.21;48.77;96500.56;3596442;39;20070;-56
2021/06/07 05:08:30;;;;;;;10.68;9.38;;;;;;;20.72;47.39;96504.69;3605225;39;20051;-58
2021/06/07 05:10:59;;;;;;;10.65;9.30;;;;;;;20.99;47.43;96504.84;3600452;39;20764;-55
2021/06/07 05:13:28;;;;;;;12.55;9.80;;;;;;;20.87;47.25;96503.53;3604679;39;20047;-54
2021/06/07 05:15:57;;;;;;;10.25;8.65;;;;;;;20.41;47.96;96501.97;3597367;39;20055;-58
2021/06/07 05:18:25;;;;;;;12.80;8.88;;;;;;;19.97;49.09;96507.81;3604226;39;20051;-55
2021/06/07 05:20:53;;;;;;;10.25;9.40;;;;;;;19.00;50.73;96503.31;3599153;39;20058;-56
2021/06/07 05:23:21;;;;;;;10.80;9.77;;;;;;;18.54;51.53;96506.72;3600273;39;20070;-55
2021/06/07 05:25:49;;;;;;;10.98;9.88;;;;;;;18.10;53.36;96509.53;3601607;39;20051;-56
2021/06/07 05:28:18;;;;;;;10.18;9.18;;;;;;;17.61;55.29;96506.16;3602272;39;20055;-56
2021/06/07 05:30:48;;;;;;;11.90;10.32;;;;;;;17.46;55.17;96506.34;3606423;39;20131;-55
2021/06/07 05:33:17;;;;;;;13.88;11.32;;;;;;;17.28;55.84;96498.03;3608420;39;20302;-54
2021/06/07 05:35:48;;;;;;;12.38;11.18;;;;;;;17.16;56.98;96500.28;3606985;39;20054;-54
2021/06/07 05:38:17;;;;;;;11.43;10.23;;;;;;;17.04;57.35;96500.69;3605978;39;20040;-54
2021/06/07 05:40:50;;;;;;;12.88;10.35;;;;;;;17.03;57.60;96496.44;3601118;39;20278;-55
2021/06/07 05:43:19;;;;;;;12.82;11.38;;;;;;;17.02;57.35;96492.19;3600600;39;20840;-54
2021/06/07 05:45:46;;;;;;;21.30;11.15;;;;;;;16.94;58.08;96490.94;3600278;39;20057;-55
2021/06/07 05:48:14;;;;;;;15.35;10.48;;;;;;;16.94;58.16;96506.06;3598779;39;20039;-54
2021/06/07 05:50:43;;;;;;;12.93;9.43;;;;;;;16.92;58.77;96496.50;3599583;39;20043;-55
2021/06/07 05:53:13;;;;;;;11.82;9.27;;;;;;;17.02;58.36;96492.19;3599924;39;20043;-55
2021/06/07 05:55:43;;;;;;;10.70;8.85;;;;;;;17.08;58.36;96496.38;3603036;39;20093;-54
2021/06/07 05:58:18;;;;;;;11.25;10.02;;;;;;;17.13;58.58;96488.31;3863477;22;20307;-60
2021/06/07 06:00:50;;;;;;;13.40;8.48;;;;;;;17.10;58.17;96485.44;3601065;22;20071;-61
2021/06/07 06:03:19;;;;;;;12.07;8.43;;;;;;;17.15;56.98;96480.03;3578748;40;20856;-61
2021/06/07 06:05:47;;;;;;;12.68;8.55;;;;;;;17.21;58.40;96479.69;3576503;40;20037;-60
2021/06/07 06:08:16;;;;;;;11.25;8.48;;;;;;;17.23;57.47;96475.94;3580156;40;20039;-61
2021/06/07 06:10:44;;;;;;;10.40;8.65;;;;;;;17.28;57.90;96482.03;3580454;40;20423;-61
2021/06/07 06:13:31;;;;;;;11.88;7.50;;;;;;;17.30;56.44;96482.53;3580914;40;20052;-61
2021/06/07 06:15:59;;;;;;;12.13;8.55;;;;;;;17.35;57.37;96487.00;3580913;40;20345;-60
2021/06/07 06:18:27;;;;;;;13.02;9.18;;;;;;;17.38;56.92;96483.78;3580910;40;20056;-62
2021/06/07 06:20:55;;;;;;;10.55;8.68;;;;;;;17.39;55.97;96474.69;3588142;39;20621;-61
2021/06/07 06:23:23;;;;;;;10.77;8.70;;;;;;;17.29;56.00;96482.84;3585212;39;20056;-60
2021/06/07 06:25:50;;;;;;;12.77;8.18;;;;;;;17.34;56.59;96486.22;3570528;40;20044;-61
2021/06/07 06:28:18;;;;;;;13.38;8.57;;;;;;;17.48;56.25;96483.66;3580441;40;20040;-62
2021/06/07 06:30:46;;;;;;;18.48;8.55;;;;;;;17.61;56.32;96492.03;3580624;40;20072;-62
2021/06/07 06:33:13;;;;;;;10.55;8.35;;;;;;;17.73;55.93;96484.41;3580405;40;20821;-61
2021/06/07 06:35:41;;;;;;;10.68;8.07;;;;;;;17.91;56.85;96488.16;3584209;39;20087;-60
2021/06/07 06:38:10;;;;;;;13.18;9.10;;;;;;;18.00;55.87;96488.34;3585759;39;20056;-61
2021/06/07 06:40:40;;;;;;;9.60;8.07;;;;;;;18.11;54.73;96489.75;3587045;39;20052;-60
2021/06/07 06:43:09;;;;;;;9.75;8.85;;;;;;;18.05;55.03;96487.47;3579741;40;20053;-62
2021/06/07 06:45:39;;;;;;;9.88;8.77;;;;;;;18.06;55.13;96487.16;3578666;40;20060;-63
2021/06/07 06:48:07;;;;;;;10.13;9.15;;;;;;;18.18;55.39;96484.06;3578721;40;20042;-61
2021/06/07 06:50:39;;;;;;;9.23;7.60;;;;;;;18.22;54.86;96468.25;3580342;40;20709;-63
2021/06/07 06:53:17;;;;;;;9.90;7.50;;;;;;;18.36;55.12;96482.44;3574027;40;20060;-62
2021/06/07 06:55:46;;;;;;;11.25;7.43;;;;;;;18.46;54.24;96475.34;3570409;40;20058;-61
2021/06/07 06:58:15;;;;;;;12.50;7.60;;;;;;;18.60;53.62;96471.59;3578107;40;20059;-60
2021/06/07 07:00:43;;;;;;;9.05;7.10;;;;;;;18.87;53.42;96471.97;3579682;40;20043;-62
2021/06/07 07:03:16;;;;;;;9.88;7.20;;;;;;;18.87;53.13;96469.28;3580696;40;20363;-61
2021/06/07 07:05:45;;;;;;;8.80;6.75;;;;;;;19.07;52.55;96467.34;3579879;40;20059;-61
2021/06/07 07:08:14;;;;;;;8.85;7.55;;;;;;;19.24;52.40;96470.22;3580096;40;20082;-61
2021/06/07 07:10:44;;;;;;;8.90;8.07;;;;;;;19.36;52.01;96469.72;3579736;40;20062;-61
2021/06/07 07:13:12;;;;;;;10.57;7.63;;;;;;;19.45;51.25;96465.22;3580243;40;20060;-62
2021/06/07 07:15:40;;;;;;;9.88;8.40;;;;;;;19.69;51.36;96468.78;3580162;40;21852;-62
2021/06/07 07:18:10;;;;;;;10.35;8.02;;;;;;;19.76;49.40;96461.91;3581366;40;20052;-56
2021/06/07 07:20:38;;;;;;;8.68;7.88;;;;;;;19.97;51.36;96464.16;3582014;40;20308;-54
2021/06/07 07:23:06;;;;;;;22.08;8.15;;;;;;;20.39;49.58;96469.34;3581413;40;20106;-55
2021/06/07 07:25:35;;;;;;;10.88;7.07;;;;;;;20.60;48.33;96464.28;3581887;40;20063;-54
2021/06/07 07:28:05;;;;;;;10.65;8.02;;;;;;;20.54;48.88;96463.59;3581902;40;20056;-54
2021/06/07 07:30:34;;;;;;;7.40;6.72;;;;;;;20.89;47.73;96455.00;3571478;40;20057;-55
2021/06/07 07:33:04;;;;;;;12.35;6.85;;;;;;;20.98;48.04;96447.75;3572578;40;20443;-55
2021/06/07 07:35:33;;;;;;;11.85;7.05;;;;;;;21.03;48.07;96454.88;3582288;40;20047;-54
2021/06/07 07:38:03;;;;;;;7.18;6.10;;;;;;;21.08;47.99;96459.31;3581142;40;20056;-54
2021/06/07 07:40:39;;;;;;;9.10;6.95;;;;;;;21.22;47.34;96451.94;3579133;40;20977;-56
2021/06/07 07:43:07;;;;;;;9.80;6.57;;;;;;;21.40;45.84;96458.13;3581730;40;20340;-55
2021/06/07 07:45:36;;;;;;;11.60;6.07;;;;;;;21.49;46.18;96450.09;3580824;40;20045;-55
2021/06/07 07:48:06;;;;;;;8.32;6.00;;;;;;;21.43;45.91;96457.53;3582020;40;20053;-54
2021/06/07 07:50:35;;;;;;;10.35;5.72;;;;;;;21.64;46.00;96454.25;3575783;40;20485;-54
2021/06/07 07:53:03;;;;;;;11.05;7.15;;;;;;;21.84;45.99;96441.34;3587130;40;20062;-56
2021/06/07 07:55:34;;;;;;;10.40;6.68;;;;;;;22.04;45.61;96451.44;3579563;40;20080;-54
2021/06/07 07:58:06;;;;;;;8.85;6.70;;;;;;;22.16;46.64;96458.06;3579030;40;20401;-56
2021/06/07 08:00:34;;;;;;;9.88;7.15;;;;;;;22.25;44.78;96450.78;3580830;40;20048;-54
2021/06/07 08:03:02;;;;;;;9.80;6.45;;;;;;;22.38;45.80;96449.81;3585350;39;24115;-56
2021/06/07 08:05:32;;;;;;;6.60;5.93;;;;;;;22.30;45.62;96456.00;3582863;40;20328;-58
2021/06/07 08:08:01;;;;;;;6.68;5.53;;;;;;;22.42;45.42;96445.41;3572895;40;20048;-53
2021/06/07 08:10:28;;;;;;;7.63;5.57;;;;;;;22.57;45.10;96446.03;3590352;40;20063;-54
2021/06/07 08:13:01;;;;;;;7.10;6.13;;;;;;;22.71;44.11;96443.91;3582443;40;20494;-53
2021/06/07 08:15:31;;;;;;;6.60;5.82;;;;;;;22.98;43.45;96441.91;3582897;40;20060;-55
2021/06/07 08:17:59;;;;;;;7.47;5.65;;;;;;;23.16;42.81;96436.44;3581532;40;20086;-53
2021/06/07 08:20:28;;;;;;;8.85;5.30;;;;;;;23.33;41.39;96441.75;3582791;40;20057;-53
2021/06/07 08:22:55;;;;;;;5.82;5.32;;;;;;;23.60;40.81;96428.91;3583032;40;20051;-55
2021/06/07 08:25:25;;;;;;;8.15;5.32;;;;;;;23.78;40.72;96434.19;3584348;40;20063;-54
2021/06/07 08:27:53;;;;;;;8.27;4.40;;;;;;;23.94;39.02;96432.44;3582799;40;20064;-56
2021/06/07 08:30:22;;;;;;;7.10;4.10;;;;;;;23.98;37.60;96431.81;3583852;40;20056;-54
2021/06/07 08:32:50;;;;;;;6.82;4.70;;;;;;;24.21;38.30;96427.66;3579699;40;20055;-54
2021/06/07 08:35:18;;;;;;;5.75;4.07;;;;;;;24.39;36.69;96419.41;3582304;40;20053;-54
2021/06/07 08:37:46;;;;;;;7.35;4.10;;;;;;;24.61;36.58;96429.00;3591148;40;20431;-54
2021/06/07 08:40:16;;;;;;;4.47;4.03;;;;;;;24.69;35.80;96427.34;3581034;40;20361;-54
2021/06/07 08:42:45;;;;;;;4.70;3.63;;;;;;;24.93;36.01;96417.69;3582604;40;20049;-55
2021/06/07 08:45:20;;;;;;;4.78;3.78;;;;;;;25.15;36.62;96417.25;3572342;40;20521;-53
2021/06/07 08:47:50;;;;;;;4.82;3.95;;;;;;;25.10;32.83;96414.78;3578031;40;20052;-56
2021/06/07 08:50:27;;;;;;;5.05;4.05;;;;;;;24.91;32.21;96418.03;3581467;40;20388;-54
2021/06/07 08:52:55;;;;;;;3.78;3.30;;;;;;;24.81;31.21;96423.88;3588117;40;20052;-54
2021/06/07 08:55:31;;;;;;;4.47;3.35;;;;;;;24.28;31.11;96415.56;3581873;40;20052;-54
2021/06/07 08:58:04;;;;;;;4.07;3.63;;;;;;;24.37;32.01;96405.47;3582734;40;20049;-62
2021/06/07 09:00:37;;;;;;;3.72;3.42;;;;;;;24.42;32.07;96408.72;3582945;40;20066;-55
2021/06/07 09:03:08;;;;;;;4.10;3.70;;;;;;;24.50;32.04;96409.75;3582583;40;20056;-55
2021/06/07 09:05:39;;;;;;;5.63;3.50;;;;;;;24.61;31.79;96412.81;3588856;40;20552;-55
2021/06/07 09:08:13;;;;;;;7.47;4.00;;;;;;;24.74;32.08;96413.63;3582831;40;20048;-55
2021/06/07 09:10:44;;;;;;;3.80;3.47;;;;;;;24.80;33.41;96412.28;3581657;40;20107;-55
2021/06/07 09:13:15;;;;;;;4.45;3.60;;;;;;;24.83;33.17;96400.81;3583153;40;20051;-55
2021/06/07 09:15:46;;;;;;;5.80;3.80;;;;;;;24.71;33.74;96404.31;3590085;40;20058;-53
2021/06/07 09:18:36;;;;;;;9.50;3.92;;;;;;;24.60;33.49;96400.47;3580892;40;20049;-55
2021/06/07 09:21:20;;;;;;;7.75;4.55;;;;;;;24.16;34.73;96397.41;3578466;40;20055;-54
2021/06/07 09:24:02;;;;;;;6.37;4.43;;;;;;;24.50;35.24;96407.06;3583409;40;20078;-53
2021/06/07 09:26:36;;;;;;;4.47;4.05;;;;;;;24.90;33.88;96402.97;3589485;40;20541;-55
2021/06/07 09:29:07;;;;;;;8.85;4.90;;;;;;;25.28;33.80;96403.75;3590159;40;20055;-55
2021/06/07 09:31:38;;;;;;;5.30;3.67;;;;;;;25.26;32.94;96398.66;3582381;40;20040;-54
2021/06/07 09:34:08;;;;;;;5.70;4.10;;;;;;;25.08;34.13;96400.81;3582837;40;20060;-58
2021/06/07 09:36:44;;;;;;;5.70;3.63;;;;;;;24.78;34.13;96408.34;3580778;40;20048;-54
2021/06/07 09:39:17;;;;;;;6.85;4.15;;;;;;;24.89;32.93;96396.00;3583510;40;20048;-54
2021/06/07 09:41:54;;;;;;;5.13;4.13;;;;;;;24.24;33.85;96391.94;3581590;40;20060;-55
2021/06/07 09:44:27;;;;;;;4.80;4.10;;;;;;;24.45;34.42;96401.88;3582893;40;20056;-55
2021/06/07 09:47:25;;;;;;;9.15;4.80;;;;;;;24.91;34.64;96401.06;3582303;40;20471;-55
2021/06/07 09:49:59;;;;;;;5.25;4.55;;;;;;;25.21;33.89;96396.22;3582766;40;20059;-55
2021/06/07 09:52:32;;;;;;;7.43;4.43;;;;;;;25.39;32.78;96404.84;3590060;40;20056;-54
2021/06/07 09:55:13;;;;;;;10.88;4.97;;;;;;;25.22;33.76;96397.00;3581630;40;20423;-54
2021/06/07 09:57:48;;;;;;;5.47;4.65;;;;;;;25.46;33.68;96394.28;3582610;40;20044;-54
2021/06/07 10:00:35;;;;;;;;;;;;;;;25.57;33.21;96388.41;3583631;40;20057;-54
2021/06/07 10:03:16;;;;;;;5.70;5.20;;;;;;;25.95;32.38;96395.25;3582498;40;19932;-54
2021/06/07 10:05:44;;;;;;;6.13;5.05;;;;;;;25.89;32.12;96392.00;3582940;40;20052;-55
2021/06/07 10:08:12;;;;;;;6.32;4.43;;;;;;;26.13;31.59;96395.00;3583080;40;20055;-55
2021/06/07 10:10:41;;;;;;;8.52;5.75;;;;;;;26.17;31.69;96396.66;3574146;40;20539;-54
2021/06/07 10:13:11;;;;;;;5.22;3.90;;;;;;;26.28;31.98;96398.84;3580508;40;20058;-56
2021/06/07 10:15:41;;;;;;;7.72;4.63;;;;;;;26.13;31.03;96389.59;3590009;40;20397;-55
2021/06/07 10:18:15;;;;;;;4.85;4.40;;;;;;;25.82;31.11;96391.03;3589841;40;20382;-54
2021/06/07 10:20:50;;;;;;;5.88;4.40;;;;;;;25.66;32.24;96385.56;3583518;40;20055;-54
2021/06/07 10:23:28;;;;;;;3.92;3.63;;;;;;;25.10;31.81;96381.63;3583295;40;20046;-54
2021/06/07 10:25:58;;;;;;;6.38;4.10;;;;;;;24.91;32.39;96379.47;3582523;40;20049;-54
2021/06/07 10:28:31;;;;;;;4.40;4.00;;;;;;;24.64;32.01;96379.00;3579630;40;20049;-54
2021/06/07 10:31:13;;;;;;;4.43;4.03;;;;;;;24.67;31.71;96376.41;3581736;40;20458;-54
2021/06/07 10:33:43;;;;;;;4.40;3.90;;;;;;;24.66;31.64;96380.22;3591973;40;20056;-54
2021/06/07 10:36:26;;;;;;;5.35;4.10;;;;;;;24.79;31.87;96372.97;3584456;40;20093;-55
2021/06/07 10:39:18;;;;;;;4.00;3.67;;;;;;;24.61;31.88;96382.34;3576965;40;20052;-54
2021/06/07 10:41:58;;;;;;;5.85;4.53;;;;;;;24.61;32.57;96376.97;3582713;40;20086;-54
2021/06/07 10:44:47;;;;;;;4.38;3.85;;;;;;;24.64;29.80;96376.28;3578662;40;21111;-54
2021/06/07 10:47:18;;;;;;;6.40;4.07;;;;;;;24.37;29.92;96365.00;3581556;40;20044;-53
2021/06/07 10:49:54;;;;;;;7.03;3.58;;;;;;;24.61;31.21;96364.28;3582221;40;20064;-54
2021/06/07 10:52:25;;;;;;;3.92;3.17;;;;;;;24.53;29.38;96363.25;3590225;40;20059;-54
2021/06/07 10:54:59;;;;;;;4.15;3.75;;;;;;;24.73;29.94;96357.34;3580851;40;20082;-55
2021/06/07 10:57:45;;;;;;;4.32;3.60;;;;;;;24.90;30.44;96359.03;3580894;40;20047;-54
2021/06/07 11:00:26;;;;;;;6.22;3.80;;;;;;;24.92;30.88;96352.16;3588687;40;20324;-53
2021/06/07 11:03:04;;;;;;;6.80;4.20;;;;;;;24.84;30.02;96348.44;3583771;40;20266;-54
2021/06/07 11:05:33;;;;;;;6.63;3.50;;;;;;;24.98;30.63;96342.72;3583834;40;20073;-55
2021/06/07 11:08:09;;;;;;;4.80;3.22;;;;;;;25.03;29.46;96342.47;3579854;40;20047;-54
2021/06/07 11:10:59;;;;;;;4.28;3.10;;;;;;;24.74;29.75;96343.50;3580209;40;20060;-54
2021/06/07 11:13:31;;;;;;;6.63;3.13;;;;;;;24.62;29.87;96346.94;3576171;40;20052;-54
2021/06/07 11:16:03;;;;;;;6.50;4.05;;;;;;;24.37;31.00;96348.84;3589693;40;20047;-53
2021/06/07 11:18:33;;;;;;;4.15;3.05;;;;;;;24.08;30.65;96345.19;3571849;40;20056;-55
2021/06/07 11:21:06;;;;;;;4.78;3.03;;;;;;;23.81;31.89;96341.94;3580450;40;20050;-54
2021/06/07 11:23:36;;;;;;;3.92;3.15;;;;;;;23.94;31.54;96345.47;3568468;40;20062;-53
2021/06/07 11:26:09;;;;;;;4.72;4.32;;;;;;;23.89;32.96;96348.34;3580286;40;20052;-56
2021/06/07 11:28:58;;;;;;;3.60;3.30;;;;;;;23.78;31.36;96348.00;3580767;40;20335;-55
2021/06/07 11:31:32;;;;;;;5.32;3.88;;;;;;;23.81;31.83;96352.72;3578069;40;20056;-54
2021/06/07 11:34:05;;;;;;;4.30;3.30;;;;;;;23.75;31.78;96343.25;3576637;40;20064;-55
2021/06/07 11:36:43;;;;;;;5.37;3.60;;;;;;;23.80;31.90;96337.69;3580188;40;20071;-55
2021/06/07 11:39:41;;;;;;;6.00;3.92;;;;;;;23.90;30.73;96339.16;3581306;40;20669;-53
2021/06/07 11:42:12;;;;;;;6.13;3.55;;;;;;;24.15;30.50;96340.03;3588363;40;20049;-57
2021/06/07 11:45:08;;;;;;;4.95;3.72;;;;;;;24.67;29.82;96332.47;3582281;40;20044;-53
2021/06/07 11:47:36;;;;;;;4.30;3.58;;;;;;;25.13;29.52;96321.53;3579567;40;20056;-58
2021/06/07 11:50:40;;;;;;;3.85;2.92;;;;;;;25.64;29.35;96323.78;3578884;40;20397;-54
2021/06/07 11:53:17;;;;;;;4.85;3.00;;;;;;;25.91;25.74;96330.28;3577694;40;20051;-55
2021/06/07 11:55:47;;;;;;;6.93;3.60;;;;;;;25.64;26.77;96326.50;3581104;40;20056;-54
2021/06/07 11:58:21;;;;;;;4.72;4.32;;;;;;;25.55;28.39;96321.22;3579258;40;20056;-55
2021/06/07 12:00:54;;;;;;;4.45;3.42;;;;;;;25.51;29.30;96330.34;3581533;40;20078;-54
2021/06/07 12:03:22;;;;;;;3.75;3.45;;;;;;;25.08;31.22;96336.03;3587696;39;20053;-54
2021/06/07 12:05:50;;;;;;;8.25;3.85;;;;;;;25.18;30.81;96324.78;3582339;40;20044;-53
2021/06/07 12:08:21;;;;;;;3.83;3.10;;;;;;;25.06;32.27;96346.38;3571824;40;21229;-54
2021/06/07 12:10:58;;;;;;;4.57;3.42;;;;;;;24.93;32.03;96339.44;3587309;40;20056;-55
2021/06/07 12:13:41;;;;;;;4.28;3.97;;;;;;;24.64;32.08;96333.13;3579773;40;20040;-54
2021/06/07 12:16:17;;;;;;;7.20;3.75;;;;;;;24.61;31.91;96336.50;3584615;40;20048;-62
2021/06/07 12:18:52;;;;;;;4.95;3.47;;;;;;;24.61;32.37;96331.09;3587597;40;20053;-53
2021/06/07 12:21:23;;;;;;;4.68;4.22;;;;;;;24.46;32.20;96322.56;3577693;40;20056;-54
2021/06/07 12:23:57;;;;;;;5.70;3.85;;;;;;;24.49;32.52;96321.13;3579367;40;20044;-55